Time;durP1;ratioP1;P1;durP2;ratioP2;P2;SDS_P1;SDS_P2;PMS_P1;PMS_P2;Temp;Humidity;BMP_temperature;BMP_pressure;BME280_temperature;BME280_humidity;BME280_pressure;Samples;Min_cycle;Max_cycle;Signal;HPM_P1;HPM_P2
2022/02/15 00:00:32;;;;;;;4.18;2.60;;;;;;;19.07;42.41;100528.69;5026365;28;20061;-45
2022/02/15 00:02:58;;;;;;;3.33;2.50;;;;;;;19.06;42.25;100521.78;5025295;28;20551;-49
2022/02/15 00:05:24;;;;;;;3.45;2.38;;;;;;;19.04;42.22;100516.69;5025968;28;20040;-41
2022/02/15 00:07:49;;;;;;;3.35;2.72;;;;;;;19.04;42.33;100516.69;5025707;28;20033;-43
2022/02/15 00:10:15;;;;;;;4.28;2.67;;;;;;;19.04;42.16;100510.59;5025445;28;20057;-46
2022/02/15 00:12:41;;;;;;;3.97;2.60;;;;;;;19.03;42.08;100506.34;5025020;28;20556;-46
2022/02/15 00:15:08;;;;;;;3.13;2.15;;;;;;;19.03;42.05;100496.59;5025373;28;20042;-42
2022/02/15 00:17:37;;;;;;;4.22;1.88;;;;;;;19.03;42.07;100493.13;5025814;28;20401;-43
2022/02/15 00:20:05;;;;;;;3.63;2.92;;;;;;;19.02;41.93;100491.50;5025915;28;20041;-42
2022/02/15 00:22:31;;;;;;;2.60;2.00;;;;;;;19.01;42.09;100489.88;5025876;28;20231;-46
2022/02/15 00:24:56;;;;;;;3.13;2.72;;;;;;;19.00;42.07;100485.59;5025107;28;20037;-45
2022/02/15 00:27:22;;;;;;;2.67;2.00;;;;;;;18.98;42.11;100490.28;5025108;28;20025;-48
2022/02/15 00:29:47;;;;;;;3.13;2.53;;;;;;;18.96;42.14;100477.25;5025844;28;20478;-49
2022/02/15 00:32:13;;;;;;;4.38;2.45;;;;;;;18.96;42.11;100481.72;5026540;28;20029;-40
2022/02/15 00:34:38;;;;;;;2.22;1.90;;;;;;;18.95;42.08;100480.09;5028887;28;20444;-46
2022/02/15 00:37:04;;;;;;;2.70;1.98;;;;;;;18.93;42.14;100482.13;5028734;28;20033;-51
2022/02/15 00:39:29;;;;;;;3.50;2.22;;;;;;;18.93;42.09;100479.50;5028802;28;20405;-45
2022/02/15 00:41:55;;;;;;;3.58;2.00;;;;;;;18.92;41.90;100476.03;5028868;28;20095;-45
2022/02/15 00:44:20;;;;;;;2.90;2.40;;;;;;;18.92;42.16;100459.38;5029244;28;20037;-44
2022/02/15 00:46:46;;;;;;;3.78;2.05;;;;;;;18.90;42.11;100463.03;5029172;28;20033;-45
2022/02/15 00:49:12;;;;;;;2.15;1.85;;;;;;;18.88;42.08;100459.81;5029244;28;20029;-44
2022/02/15 00:51:37;;;;;;;3.38;1.88;;;;;;;18.86;42.11;100459.19;5008320;28;20476;-44
2022/02/15 00:54:04;;;;;;;3.45;2.38;;;;;;;18.87;42.05;100457.38;5028420;28;20033;-45
2022/02/15 00:56:29;;;;;;;3.33;2.15;;;;;;;18.86;42.05;100461.81;5029098;28;20041;-50
2022/02/15 00:58:55;;;;;;;2.42;1.83;;;;;;;18.85;42.11;100464.66;5028858;28;20115;-41
2022/02/15 01:01:20;;;;;;;2.97;1.67;;;;;;;18.85;42.14;100462.03;5028819;28;20037;-42
2022/02/15 01:03:46;;;;;;;3.88;1.73;;;;;;;18.84;42.15;100458.56;5027299;28;20052;-46
2022/02/15 01:06:11;;;;;;;2.65;1.95;;;;;;;18.83;42.18;100456.13;5028843;28;20037;-43
2022/02/15 01:08:39;;;;;;;2.72;2.10;;;;;;;18.84;42.21;100447.19;5028031;28;20029;-50
2022/02/15 01:11:05;;;;;;;4.13;2.80;;;;;;;18.82;42.09;100447.41;5004639;28;20556;-48
2022/02/15 01:13:31;;;;;;;2.92;2.58;;;;;;;18.83;42.18;100449.03;5017086;28;20048;-48
2022/02/15 01:15:56;;;;;;;2.78;2.17;;;;;;;18.83;42.10;100443.75;5027335;28;20049;-48
2022/02/15 01:18:26;;;;;;;4.07;2.58;;;;;;;18.82;42.24;100442.13;5028806;28;20022;-48
2022/02/15 01:20:53;;;;;;;2.13;1.80;;;;;;;18.83;42.21;100438.47;5028354;28;20477;-49
2022/02/15 01:23:18;;;;;;;2.15;1.95;;;;;;;18.84;42.24;100432.19;5027851;28;20025;-45
2022/02/15 01:25:44;;;;;;;2.47;2.22;;;;;;;18.84;42.15;100432.19;5028611;28;20504;-43
2022/02/15 01:28:10;;;;;;;2.45;2.00;;;;;;;18.85;42.08;100425.88;5028706;28;20119;-45
2022/02/15 01:30:35;;;;;;;3.25;2.17;;;;;;;18.83;42.09;100420.00;5027627;28;20052;-48
2022/02/15 01:33:01;;;;;;;2.80;2.10;;;;;;;18.83;42.15;100417.34;5027988;28;20042;-47
2022/02/15 01:35:26;;;;;;;2.88;2.15;;;;;;;18.83;42.12;100424.47;5027978;28;20100;-46
2022/02/15 01:37:52;;;;;;;2.47;2.28;;;;;;;18.80;42.18;100415.13;5028022;28;20423;-40
2022/02/15 01:40:17;;;;;;;3.30;2.38;;;;;;;18.80;42.24;100409.00;5027609;28;20022;-48
2022/02/15 01:42:43;;;;;;;2.30;2.10;;;;;;;18.79;42.31;100408.22;5027823;28;20033;-40
2022/02/15 01:45:10;;;;;;;3.85;2.05;;;;;;;18.79;42.19;100410.03;5026425;28;20551;-47
2022/02/15 01:47:35;;;;;;;2.33;2.13;;;;;;;18.79;42.18;100415.31;4995272;28;20034;-48
2022/02/15 01:50:01;;;;;;;2.72;2.35;;;;;;;18.78;42.16;100413.69;5027932;28;20049;-48
2022/02/15 01:52:27;;;;;;;1.80;1.35;;;;;;;18.76;42.27;100405.16;5027993;28;20055;-46
2022/02/15 01:54:56;;;;;;;2.28;1.52;;;;;;;18.73;42.09;100395.81;5027581;28;20045;-44
2022/02/15 01:57:23;;;;;;;1.83;1.45;;;;;;;18.73;42.26;100392.34;5026242;28;20075;-44
2022/02/15 01:59:53;;;;;;;2.28;1.63;;;;;;;18.73;42.23;100392.34;5027641;28;20064;-48
2022/02/15 02:02:18;;;;;;;3.67;2.03;;;;;;;18.70;42.09;100385.63;5026746;28;20037;-48
2022/02/15 02:07:29;;;;;;;2.22;1.67;;;;;;;18.68;42.26;100373.66;5028138;28;20534;-45
2022/02/15 02:09:54;;;;;;;1.88;1.38;;;;;;;18.68;42.17;100368.38;5027528;28;20268;-44
2022/02/15 02:12:21;;;;;;;2.20;1.95;;;;;;;18.68;42.07;100366.56;4984879;23;20370;-62
2022/02/15 02:15:05;;;;;;;2.97;1.80;;;;;;;18.64;42.20;100362.69;5009665;28;20599;-59
2022/02/15 02:17:30;;;;;;;3.00;2.10;;;;;;;18.65;42.06;100363.50;5009453;28;20034;-63
2022/02/15 02:19:57;;;;;;;2.83;2.08;;;;;;;18.66;42.24;100354.56;5009651;28;20053;-63
2022/02/15 02:22:24;;;;;;;3.00;2.20;;;;;;;18.66;42.13;100354.56;5008835;28;20026;-62
2022/02/15 02:24:51;;;;;;;3.15;2.30;;;;;;;18.66;42.15;100362.50;5009507;28;20124;-62
2022/02/15 02:27:22;;;;;;;2.70;1.90;;;;;;;18.65;42.27;100353.75;5009395;28;20052;-63
2022/02/15 02:29:51;;;;;;;3.28;1.88;;;;;;;18.64;42.13;100352.13;5009412;28;20327;-63
2022/02/15 02:32:20;;;;;;;2.63;1.80;;;;;;;18.64;42.16;100354.78;5008895;28;20531;-60
2022/02/15 02:34:46;;;;;;;2.25;1.85;;;;;;;18.64;42.17;100351.31;5009202;28;20508;-63
2022/02/15 02:37:14;;;;;;;3.60;1.52;;;;;;;18.63;42.12;100345.22;5009323;28;20149;-62
2022/02/15 02:39:43;;;;;;;2.90;1.83;;;;;;;18.63;42.14;100345.22;5008743;28;20033;-63
2022/02/15 02:42:10;;;;;;;2.25;1.70;;;;;;;18.63;42.15;100339.13;5009242;28;20112;-63
2022/02/15 02:44:35;;;;;;;2.47;1.98;;;;;;;18.62;42.11;100326.94;5008920;28;20029;-62
2022/02/15 02:47:00;;;;;;;1.98;1.30;;;;;;;18.59;42.22;100330.78;5009250;28;20075;-62
2022/02/15 02:49:26;;;;;;;1.85;1.45;;;;;;;18.56;42.24;100324.06;5009387;28;20311;-63
2022/02/15 02:51:51;;;;;;;1.95;1.73;;;;;;;18.55;42.22;100322.44;5009112;28;20484;-63
2022/02/15 02:54:17;;;;;;;1.85;1.40;;;;;;;18.55;42.16;100313.72;5007299;28;20034;-63
2022/02/15 02:56:42;;;;;;;2.10;1.60;;;;;;;18.54;42.23;100314.72;5008580;28;20017;-62
2022/02/15 02:59:07;;;;;;;2.95;1.73;;;;;;;18.54;42.13;100312.09;5007580;28;20037;-63
2022/02/15 03:01:33;;;;;;;2.17;1.42;;;;;;;18.53;42.29;100313.91;5008377;28;20029;-63
2022/02/15 03:03:58;;;;;;;1.83;1.48;;;;;;;18.52;42.29;100319.38;5007790;28;20030;-62
2022/02/15 03:06:26;;;;;;;2.38;1.50;;;;;;;18.50;42.17;100314.31;5007994;28;20037;-63
2022/02/15 03:08:51;;;;;;;2.25;1.70;;;;;;;18.50;42.33;100310.84;5008546;28;20065;-63
2022/02/15 03:11:17;;;;;;;1.42;1.10;;;;;;;18.50;42.31;100324.06;5007924;28;20108;-63
2022/02/15 03:13:42;;;;;;;2.85;1.83;;;;;;;18.50;42.38;100319.59;5007838;28;20104;-63
2022/02/15 03:16:07;;;;;;;2.33;1.63;;;;;;;18.48;42.22;100316.34;4988815;28;20136;-62
2022/02/15 03:18:33;;;;;;;2.13;1.45;;;;;;;18.47;42.29;100316.53;5002901;28;20022;-63
2022/02/15 03:20:58;;;;;;;2.05;1.30;;;;;;;18.46;42.30;100313.09;5007724;28;20129;-63
2022/02/15 03:23:24;;;;;;;2.00;1.63;;;;;;;18.46;42.37;100315.72;5008015;28;20208;-63
2022/02/15 03:25:50;;;;;;;2.15;1.25;;;;;;;18.45;42.35;100318.56;5007866;28;20509;-63
2022/02/15 03:28:16;;;;;;;2.03;1.38;;;;;;;18.46;42.45;100312.28;5008185;28;20359;-63
2022/02/15 03:30:41;;;;;;;1.88;1.52;;;;;;;18.47;42.31;100319.97;5008221;28;20072;-62
2022/02/15 03:33:07;;;;;;;2.05;1.60;;;;;;;18.46;42.33;100313.09;5007597;28;20033;-63
2022/02/15 03:35:32;;;;;;;3.72;1.70;;;;;;;18.47;42.36;100317.34;5008097;28;20030;-62
2022/02/15 03:37:58;;;;;;;2.05;1.73;;;;;;;18.48;42.38;100315.53;5008106;28;20096;-63
2022/02/15 03:43:04;;;;;;;2.65;2.08;;;;;;;18.48;42.30;100312.88;5007951;28;20026;-62
2022/02/15 03:43:10;;;;;;;2.50;1.75;;;;;;;18.46;42.39;100307.00;5007707;28;20037;-60
2022/02/15 03:45:36;;;;;;;2.15;1.65;;;;;;;18.47;42.28;100301.53;5008332;28;20026;-63
2022/02/15 03:48:02;;;;;;;2.63;1.92;;;;;;;18.48;42.32;100304.97;5007698;28;20037;-62
2022/02/15 03:50:28;;;;;;;2.10;1.55;;;;;;;18.48;42.29;100305.78;5007070;28;20030;-63
2022/02/15 03:52:53;;;;;;;1.95;1.35;;;;;;;18.47;42.30;100308.63;5007772;28;20478;-63
2022/02/15 03:55:19;;;;;;;3.22;1.77;;;;;;;18.47;42.43;100292.78;5008375;28;20466;-63
2022/02/15 03:57:45;;;;;;;2.35;1.50;;;;;;;18.46;42.46;100296.44;5008269;28;20026;-63
2022/02/15 04:00:11;;;;;;;2.15;1.52;;;;;;;18.45;42.46;100298.25;5008320;28;20041;-63
2022/02/15 04:02:37;;;;;;;2.80;1.50;;;;;;;18.45;42.45;100297.47;5007099;28;20034;-63
2022/02/15 04:05:02;;;;;;;1.58;1.17;;;;;;;18.44;42.33;100301.09;5006953;28;20034;-62
2022/02/15 04:07:28;;;;;;;2.72;1.90;;;;;;;18.42;42.41;100288.16;5009029;28;20037;-62
2022/02/15 04:09:53;;;;;;;3.72;1.30;;;;;;;18.42;42.41;100292.59;5011059;28;20037;-63
2022/02/15 04:12:19;;;;;;;3.20;1.15;;;;;;;18.39;42.39;100285.09;5010200;28;20054;-62
2022/02/15 04:14:44;;;;;;;1.42;1.00;;;;;;;18.37;42.40;100287.94;5011060;28;20033;-64
2022/02/15 04:17:10;;;;;;;1.67;1.00;;;;;;;18.35;42.45;100281.22;5010450;28;20033;-63
2022/02/15 04:19:35;;;;;;;1.27;0.70;;;;;;;18.33;42.48;100281.41;5010211;28;20022;-62
2022/02/15 04:22:01;;;;;;;1.67;1.05;;;;;;;18.33;42.37;100285.88;5010934;28;20022;-62
2022/02/15 04:24:26;;;;;;;1.50;0.82;;;;;;;18.31;42.62;100283.44;5011148;28;20048;-63
2022/02/15 04:26:52;;;;;;;2.55;1.13;;;;;;;18.29;42.60;100279.38;5010909;28;20021;-63
2022/02/15 04:29:17;;;;;;;1.42;1.10;;;;;;;18.30;42.55;100286.28;5010540;28;20037;-62
2022/02/15 04:31:43;;;;;;;1.98;1.48;;;;;;;18.30;42.63;100287.09;5011225;28;20469;-62
2022/02/15 04:34:09;;;;;;;1.45;1.08;;;;;;;18.29;42.52;100282.81;5010658;28;20037;-63
2022/02/15 04:36:35;;;;;;;2.17;0.90;;;;;;;18.27;42.45;100274.31;5010768;28;20149;-62
2022/02/15 04:39:00;;;;;;;1.73;1.25;;;;;;;18.28;42.44;100275.13;5010449;28;20044;-63
2022/02/15 04:41:26;;;;;;;3.35;1.63;;;;;;;18.28;42.61;100273.28;5010568;28;20037;-61
2022/02/15 04:43:51;;;;;;;3.65;1.10;;;;;;;18.30;42.64;100265.19;5011092;28;20502;-62
2022/02/15 04:46:17;;;;;;;2.33;1.60;;;;;;;18.30;42.64;100265.19;5010719;28;20386;-62
2022/02/15 04:48:43;;;;;;;1.90;1.23;;;;;;;18.30;42.65;100265.19;5010767;28;20025;-64
2022/02/15 04:51:08;;;;;;;1.80;1.30;;;;;;;18.30;42.68;100259.91;5010429;28;20033;-63
2022/02/15 04:53:34;;;;;;;3.78;1.40;;;;;;;18.30;42.49;100259.91;5010179;28;20034;-63
2022/02/15 04:56:02;;;;;;;1.52;1.17;;;;;;;18.29;42.48;100253.00;5011330;28;20042;-63
2022/02/15 04:58:27;;;;;;;2.40;1.48;;;;;;;18.28;42.56;100256.66;5010759;28;20101;-63
2022/02/15 05:00:53;;;;;;;4.57;2.25;;;;;;;18.29;42.72;100263.56;5009773;28;20711;-63
2022/02/15 05:03:18;;;;;;;1.40;0.93;;;;;;;18.28;42.44;100254.03;5010533;28;20037;-62
2022/02/15 05:05:44;;;;;;;1.05;0.63;;;;;;;18.25;42.56;100249.97;5010369;28;20037;-63
2022/02/15 05:08:09;;;;;;;1.38;1.00;;;;;;;18.24;42.47;100251.78;5010196;28;20034;-63
2022/02/15 05:10:35;;;;;;;1.40;0.90;;;;;;;18.24;42.45;100251.78;5010175;28;20033;-63
2022/02/15 05:13:01;;;;;;;2.08;1.00;;;;;;;18.27;42.53;100247.13;5010115;28;20545;-62
2022/02/15 05:15:27;;;;;;;1.75;1.02;;;;;;;18.31;42.56;100250.97;5010412;28;20476;-61
2022/02/15 05:17:52;;;;;;;3.30;0.90;;;;;;;18.32;42.38;100244.69;5010013;28;20022;-62
2022/02/15 05:20:18;;;;;;;2.60;1.13;;;;;;;18.30;42.49;100239.63;5009797;28;20073;-63
2022/02/15 05:22:45;;;;;;;3.80;0.93;;;;;;;18.31;42.44;100229.88;5010637;28;20057;-62
2022/02/15 05:25:12;;;;;;;2.63;1.00;;;;;;;18.40;42.49;100229.50;5009015;28;20045;-62
2022/02/15 05:27:38;;;;;;;2.80;1.30;;;;;;;18.48;42.72;100226.66;5010534;28;20125;-62
2022/02/15 05:30:04;;;;;;;2.92;1.25;;;;;;;18.55;42.73;100221.38;5009823;28;20064;-61
2022/02/15 05:32:30;;;;;;;5.00;1.60;;;;;;;18.61;43.02;100225.88;5010001;28;20486;-62
2022/02/15 05:34:55;;;;;;;3.47;1.35;;;;;;;18.67;43.27;100233.00;5010540;28;20049;-61
2022/02/15 05:37:20;;;;;;;1.30;0.90;;;;;;;18.67;43.26;100225.06;5009284;28;20489;-62
2022/02/15 05:39:46;;;;;;;3.95;0.85;;;;;;;18.72;42.95;100222.63;5009613;28;20044;-61
2022/02/15 05:42:11;;;;;;;4.13;1.42;;;;;;;18.75;42.85;100221.44;5009899;28;20366;-62
2022/02/15 05:44:37;;;;;;;3.95;0.88;;;;;;;18.77;42.88;100222.84;5009253;28;20029;-63
2022/02/15 05:47:02;;;;;;;3.15;0.98;;;;;;;18.81;42.80;100216.16;5009689;28;20022;-61
2022/02/15 05:49:28;;;;;;;1.88;0.95;;;;;;;18.87;42.69;100214.53;5009318;28;20040;-62
2022/02/15 05:51:53;;;;;;;2.78;1.33;;;;;;;18.92;42.38;100203.31;5009952;28;20030;-63
2022/02/15 05:54:19;;;;;;;3.13;1.08;;;;;;;18.96;42.31;100196.63;5011422;28;20060;-62
2022/02/15 05:56:44;;;;;;;4.70;1.10;;;;;;;19.07;42.62;100203.91;5009246;28;20034;-62
2022/02/15 05:59:10;;;;;;;5.40;1.20;;;;;;;19.22;42.59;100207.13;5009654;28;20034;-63
2022/02/15 06:01:35;;;;;;;2.47;0.68;;;;;;;19.33;42.44;100209.16;5007478;28;20038;-62
2022/02/15 06:04:10;;;;;;;1.98;0.77;;;;;;;19.46;42.22;100211.72;5008432;28;20389;-63
2022/02/15 06:06:35;;;;;;;2.10;0.80;;;;;;;19.54;41.98;100206.25;5009289;28;20461;-63
2022/02/15 06:09:01;;;;;;;1.80;0.90;;;;;;;19.63;41.65;100208.66;5009444;28;20037;-63
2022/02/15 06:11:26;;;;;;;1.83;1.05;;;;;;;19.68;41.73;100207.00;5009769;28;20066;-62
2022/02/15 06:13:55;;;;;;;2.30;0.75;;;;;;;19.74;41.61;100219.38;5009649;28;20215;-62
2022/02/15 06:16:23;;;;;;;1.15;0.80;;;;;;;19.80;41.56;100221.19;5009891;28;20441;-62
2022/02/15 06:18:50;;;;;;;2.58;1.10;;;;;;;19.88;41.45;100220.13;5009229;28;20129;-63
2022/02/15 06:21:17;;;;;;;2.03;1.02;;;;;;;19.92;41.40;100218.69;5004677;28;20477;-63
2022/02/15 06:23:42;;;;;;;2.60;0.80;;;;;;;19.99;41.27;100224.75;4990876;28;20034;-63
2022/02/15 06:26:08;;;;;;;2.97;0.60;;;;;;;20.06;41.11;100230.00;4989704;28;20030;-63
2022/02/15 06:28:33;;;;;;;2.33;0.80;;;;;;;20.09;40.97;100222.47;4989659;28;20100;-62
2022/02/15 06:30:59;;;;;;;2.30;1.00;;;;;;;20.14;41.10;100221.81;4989021;28;20434;-62
2022/02/15 06:33:24;;;;;;;2.08;1.10;;;;;;;20.19;41.12;100222.00;4989391;28;20030;-63
2022/02/15 06:35:50;;;;;;;1.60;0.82;;;;;;;20.24;40.95;100222.19;4971458;28;20050;-63
2022/02/15 06:38:16;;;;;;;1.42;0.60;;;;;;;20.31;40.79;100214.19;4989286;28;20080;-63
2022/02/15 06:40:41;;;;;;;4.35;0.90;;;;;;;20.37;40.65;100221.25;4989451;28;20052;-62
2022/02/15 06:43:07;;;;;;;2.90;1.30;;;;;;;20.40;40.73;100211.09;4990495;28;20221;-63
2022/02/15 06:45:32;;;;;;;2.85;1.02;;;;;;;20.46;40.43;100204.13;4997567;28;20116;-62
2022/02/15 06:47:58;;;;;;;1.98;0.80;;;;;;;20.50;40.59;100210.59;5008866;28;20028;-62
2022/02/15 06:50:27;;;;;;;1.48;0.60;;;;;;;20.57;40.24;100216.66;4995373;28;20206;-63
2022/02/15 06:52:53;;;;;;;1.67;0.82;;;;;;;20.60;40.34;100210.94;4989410;28;20033;-62
2022/02/15 06:55:18;;;;;;;2.88;0.80;;;;;;;20.66;40.18;100214.56;4989154;28;20415;-64
2022/02/15 06:57:44;;;;;;;1.20;0.63;;;;;;;20.69;40.00;100209.66;5008026;28;20030;-62
2022/02/15 07:00:10;;;;;;;1.92;0.70;;;;;;;20.73;40.13;100212.69;5008566;28;20438;-63
2022/02/15 07:02:36;;;;;;;2.13;0.90;;;;;;;20.79;40.16;100212.63;5007676;28;20029;-64
2022/02/15 07:05:02;;;;;;;2.03;0.75;;;;;;;20.83;39.90;100215.63;5008266;28;20375;-62
2022/02/15 07:07:27;;;;;;;3.33;0.63;;;;;;;20.87;39.88;100211.50;5005159;28;20397;-62
2022/02/15 07:09:53;;;;;;;1.65;1.00;;;;;;;20.90;39.68;100204.97;5007375;28;20026;-62
2022/02/15 07:12:18;;;;;;;1.25;0.63;;;;;;;20.91;39.70;100222.47;5003589;28;20140;-61
2022/02/15 07:14:44;;;;;;;3.10;0.77;;;;;;;20.92;39.71;100208.22;5004747;28;20041;-62
2022/02/15 07:17:09;;;;;;;1.38;0.85;;;;;;;20.90;39.88;100205.78;5006185;28;20087;-62
2022/02/15 07:19:35;;;;;;;1.60;0.63;;;;;;;20.88;39.87;100211.28;5008122;28;20474;-62
2022/02/15 07:22:00;;;;;;;1.63;0.63;;;;;;;20.86;40.02;100220.47;5008206;28;20072;-62
2022/02/15 07:24:26;;;;;;;2.35;0.88;;;;;;;20.84;39.91;100214.59;5008455;28;20025;-63
2022/02/15 07:26:52;;;;;;;2.50;0.82;;;;;;;20.82;39.79;100208.69;5007654;28;20292;-62
2022/02/15 07:29:17;;;;;;;1.67;0.80;;;;;;;20.82;39.93;100208.69;5007839;28;20091;-62
2022/02/15 07:31:43;;;;;;;1.65;0.70;;;;;;;20.80;39.91;100208.91;5007598;28;20440;-62
2022/02/15 07:34:08;;;;;;;1.65;0.80;;;;;;;20.78;39.99;100218.94;5008205;28;20025;-63
2022/02/15 07:36:34;;;;;;;0.95;0.52;;;;;;;20.75;39.93;100227.31;5006292;28;20119;-62
2022/02/15 07:38:59;;;;;;;1.63;0.50;;;;;;;20.75;40.11;100213.28;4997097;28;20030;-62
2022/02/15 07:41:28;;;;;;;1.92;0.60;;;;;;;20.72;40.05;100208.41;4992442;28;20050;-62
2022/02/15 07:43:54;;;;;;;2.42;0.73;;;;;;;20.70;40.13;100205.97;5004327;28;20030;-62
2022/02/15 07:46:19;;;;;;;1.25;0.70;;;;;;;20.67;40.17;100205.59;5008583;28;20026;-63
2022/02/15 07:48:45;;;;;;;3.40;0.80;;;;;;;20.64;40.33;100200.72;5010283;28;20037;-62
2022/02/15 07:51:10;;;;;;;2.42;1.15;;;;;;;20.62;40.72;100203.59;5009111;28;20036;-62
2022/02/15 07:53:36;;;;;;;3.05;1.05;;;;;;;20.62;40.85;100205.44;5010200;28;20041;-63
2022/02/15 07:56:01;;;;;;;1.83;0.90;;;;;;;20.58;41.00;100191.81;5007982;28;20307;-63
2022/02/15 07:58:27;;;;;;;5.05;1.27;;;;;;;20.58;41.07;100194.47;5010281;28;20462;-62
2022/02/15 08:00:52;;;;;;;2.53;0.60;;;;;;;20.56;41.32;100187.78;5010757;28;20033;-62
2022/02/15 08:03:19;;;;;;;2.33;0.50;;;;;;;20.53;41.54;100184.53;5010788;28;20030;-62
2022/02/15 08:05:44;;;;;;;2.85;0.82;;;;;;;20.51;41.47;100185.75;5007556;28;20038;-61
2022/02/15 08:08:10;;;;;;;2.28;0.77;;;;;;;20.50;41.56;100178.84;5010828;28;20103;-62
2022/02/15 08:10:36;;;;;;;1.45;0.93;;;;;;;20.50;41.57;100176.22;5009243;28;20029;-62
2022/02/15 08:13:03;;;;;;;2.83;0.63;;;;;;;20.50;41.48;100171.72;5009918;28;20177;-62
2022/02/15 08:15:32;;;;;;;2.78;0.52;;;;;;;20.49;41.50;100167.47;5009510;28;20081;-61
2022/02/15 08:17:58;;;;;;;3.42;0.57;;;;;;;20.49;41.62;100170.09;5008010;28;21543;-63
2022/02/15 08:20:24;;;;;;;2.80;0.50;;;;;;;20.47;41.71;100158.91;5008129;28;20041;-64
2022/02/15 08:22:50;;;;;;;1.05;0.50;;;;;;;20.46;41.76;100159.13;5009910;28;20096;-62
2022/02/15 08:25:17;;;;;;;7.50;0.60;;;;;;;20.44;41.90;100163.84;5007647;28;20034;-63
2022/02/15 08:27:44;;;;;;;1.42;0.57;;;;;;;20.41;41.54;100165.06;5009564;28;20045;-62
2022/02/15 08:30:11;;;;;;;1.33;0.60;;;;;;;20.38;41.54;100154.13;5006906;28;20041;-64
2022/02/15 08:32:37;;;;;;;2.28;0.50;;;;;;;20.35;41.64;100151.88;5006388;28;20038;-63
2022/02/15 08:35:03;;;;;;;1.70;0.60;;;;;;;20.31;41.66;100158.63;5010760;28;20038;-63
2022/02/15 08:37:28;;;;;;;3.17;0.60;;;;;;;20.28;41.55;100167.81;5011263;28;20030;-62
2022/02/15 08:39:54;;;;;;;1.48;0.77;;;;;;;20.25;41.72;100159.50;5010905;28;20038;-62
2022/02/15 08:42:19;;;;;;;3.50;0.57;;;;;;;20.23;41.60;100164.19;5010823;28;20030;-63
2022/02/15 08:44:47;;;;;;;5.18;0.93;;;;;;;20.20;41.58;100173.38;5010623;28;20030;-63
2022/02/15 08:47:13;;;;;;;1.75;0.50;;;;;;;20.17;41.79;100181.72;5010442;28;20488;-63
2022/02/15 08:49:39;;;;;;;2.08;0.65;;;;;;;20.15;41.73;100186.41;5011149;28;20029;-62
2022/02/15 08:52:05;;;;;;;1.67;0.63;;;;;;;20.13;41.78;100181.34;5010694;28;20030;-62
2022/02/15 08:54:30;;;;;;;1.40;0.30;;;;;;;20.10;41.70;100196.81;5009322;28;20179;-62
2022/02/15 08:56:56;;;;;;;1.63;0.70;;;;;;;20.08;41.76;100189.09;5010659;28;20069;-63
2022/02/15 08:59:22;;;;;;;1.80;0.55;;;;;;;20.06;41.71;100182.41;5008172;28;20033;-63
2022/02/15 09:01:48;;;;;;;1.58;0.55;;;;;;;20.04;41.78;100187.91;5009936;28;20040;-62
2022/02/15 09:04:14;;;;;;;1.25;0.50;;;;;;;20.02;41.85;100192.59;5009744;28;20029;-62
2022/02/15 09:06:41;;;;;;;2.30;0.55;;;;;;;20.00;41.92;100199.94;5009410;28;20371;-63
2022/02/15 09:09:10;;;;;;;3.10;0.50;;;;;;;19.98;41.94;100191.41;5009615;28;20191;-62
2022/02/15 09:11:36;;;;;;;1.80;0.60;;;;;;;19.96;41.88;100201.38;5005825;28;20138;-63
2022/02/15 09:14:02;;;;;;;1.10;0.60;;;;;;;19.93;41.82;100191.22;5010708;28;20050;-62
2022/02/15 09:16:28;;;;;;;1.75;0.68;;;;;;;19.92;41.97;100202.81;5006195;28;20038;-63
2022/02/15 09:18:53;;;;;;;1.67;0.60;;;;;;;19.91;41.76;100203.84;5009923;28;20449;-62
2022/02/15 09:21:19;;;;;;;3.20;0.65;;;;;;;19.90;41.92;100204.84;5010404;28;20077;-63
2022/02/15 09:23:44;;;;;;;2.35;0.63;;;;;;;19.87;41.88;100205.28;5000596;28;20046;-63
2022/02/15 09:26:10;;;;;;;1.80;0.45;;;;;;;19.86;41.92;100201.81;5003581;28;20739;-63
2022/02/15 09:28:36;;;;;;;1.83;0.80;;;;;;;19.86;41.87;100201.00;5007703;28;20038;-62
2022/02/15 09:31:01;;;;;;;1.60;0.65;;;;;;;19.84;41.94;100189.88;5006983;28;20470;-63
2022/02/15 09:33:27;;;;;;;11.50;1.60;;;;;;;19.82;42.08;100200.66;5009537;28;20565;-65
2022/02/15 09:35:52;;;;;;;3.10;0.70;;;;;;;19.78;42.06;100190.72;5010047;28;20121;-63
2022/02/15 09:38:18;;;;;;;7.65;0.57;;;;;;;19.76;42.20;100198.03;5009877;28;20105;-63
2022/02/15 09:40:44;;;;;;;3.88;0.82;;;;;;;19.76;42.08;100203.31;5010660;28;20181;-64
2022/02/15 09:43:13;;;;;;;10.77;1.00;;;;;;;19.74;42.36;100205.38;5010214;28;20057;-62
2022/02/15 09:45:39;;;;;;;6.25;0.98;;;;;;;19.70;42.28;100194.41;5005262;28;20049;-64
2022/02/15 09:48:08;;;;;;;5.50;1.23;;;;;;;19.66;42.57;100202.97;5008183;28;20411;-63
2022/02/15 09:50:34;;;;;;;4.05;1.25;;;;;;;19.62;42.52;100215.78;5002283;28;20018;-61
2022/02/15 09:53:01;;;;;;;3.60;1.25;;;;;;;19.60;42.56;100209.06;5002589;28;20037;-62
2022/02/15 09:55:26;;;;;;;3.75;1.00;;;;;;;19.57;42.58;100225.34;5008001;28;20026;-62
2022/02/15 09:57:52;;;;;;;5.75;0.82;;;;;;;19.55;42.63;100223.72;5009255;28;20042;-62
2022/02/15 10:00:21;;;;;;;3.05;1.02;;;;;;;19.52;42.73;100229.41;5009516;28;20045;-62
2022/02/15 10:02:50;;;;;;;7.28;0.70;;;;;;;19.51;42.54;100238.38;5009884;28;20091;-61
2022/02/15 10:05:17;;;;;;;3.13;0.50;;;;;;;19.52;42.50;100239.19;5008826;28;20026;-62
2022/02/15 10:07:47;;;;;;;2.17;0.70;;;;;;;19.50;42.40;100246.47;5009615;28;20029;-61
2022/02/15 10:10:13;;;;;;;2.25;0.50;;;;;;;19.50;42.39;100233.25;5008436;28;20489;-61
2022/02/15 10:12:39;;;;;;;4.18;0.60;;;;;;;19.49;42.29;100237.72;5006356;28;20155;-64
2022/02/15 10:15:09;;;;;;;2.55;0.80;;;;;;;19.47;42.41;100236.31;5008891;28;20386;-61
2022/02/15 10:17:37;;;;;;;5.20;0.70;;;;;;;19.48;42.34;100237.94;5009364;28;20058;-61
2022/02/15 10:20:04;;;;;;;2.08;0.68;;;;;;;19.47;42.30;100242.41;5009142;28;20556;-62
2022/02/15 10:22:30;;;;;;;3.80;0.65;;;;;;;19.46;42.15;100246.06;5000051;28;20022;-61
2022/02/15 10:25:02;;;;;;;4.68;0.80;;;;;;;19.45;42.40;100249.72;5009122;28;20430;-62
2022/02/15 10:27:31;;;;;;;3.50;1.00;;;;;;;19.44;42.62;100249.94;5008499;28;20025;-62
2022/02/15 10:29:58;;;;;;;1.83;0.55;;;;;;;19.43;42.57;100250.97;5007994;28;20112;-62
2022/02/15 10:32:25;;;;;;;1.88;0.50;;;;;;;19.41;42.65;100251.16;5005279;28;20037;-62
2022/02/15 10:34:56;;;;;;;5.40;0.77;;;;;;;19.40;42.64;100241.63;5006492;28;20091;-61
2022/02/15 10:37:32;;;;;;;4.20;0.80;;;;;;;19.38;42.75;100232.28;5008241;28;20038;-62
2022/02/15 10:40:03;;;;;;;2.58;0.88;;;;;;;19.35;42.82;100233.53;5008871;28;20029;-61
2022/02/15 10:42:31;;;;;;;4.72;1.00;;;;;;;19.35;42.81;100233.53;5007869;28;20513;-61
2022/02/15 10:45:01;;;;;;;1.52;0.95;;;;;;;19.34;42.74;100241.66;5003084;28;20038;-62
2022/02/15 10:47:32;;;;;;;3.47;0.63;;;;;;;19.32;42.64;100244.50;4997269;28;20022;-62
2022/02/15 10:50:03;;;;;;;2.95;0.65;;;;;;;19.31;42.66;100242.88;5008489;28;20455;-62
2022/02/15 10:52:29;;;;;;;3.63;0.82;;;;;;;19.32;42.64;100238.41;5003964;28;20037;-61
2022/02/15 10:54:57;;;;;;;1.35;0.60;;;;;;;19.30;42.84;100241.25;5008218;28;20045;-62
2022/02/15 10:57:23;;;;;;;1.30;0.60;;;;;;;19.28;43.04;100243.28;5008426;28;20434;-63
2022/02/15 10:59:50;;;;;;;1.83;0.70;;;;;;;19.28;43.10;100227.44;5000609;28;20334;-63
2022/02/15 11:02:23;;;;;;;1.75;0.70;;;;;;;19.27;43.16;100225.00;5003460;28;20164;-62
2022/02/15 11:04:50;;;;;;;5.40;0.70;;;;;;;19.26;43.14;100232.13;5001515;28;20382;-62
2022/02/15 11:07:22;;;;;;;4.90;0.60;;;;;;;19.23;43.16;100227.25;5004645;28;20026;-62
2022/02/15 11:09:50;;;;;;;6.50;0.90;;;;;;;19.22;43.11;100231.72;5006868;28;20034;-62
2022/02/15 11:12:21;;;;;;;3.47;0.68;;;;;;;19.21;43.24;100230.09;5006896;28;20489;-61
2022/02/15 11:14:52;;;;;;;3.80;0.50;;;;;;;19.20;43.24;100230.31;5005736;28;20490;-61
2022/02/15 11:17:17;;;;;;;3.97;0.45;;;;;;;19.18;43.16;100217.31;5005876;28;20482;-62
2022/02/15 11:19:43;;;;;;;2.42;1.08;;;;;;;19.16;43.05;100214.06;5004215;28;20486;-61
2022/02/15 11:22:19;;;;;;;2.60;0.60;;;;;;;19.15;43.19;100211.63;4990154;28;20057;-61